createdAt,value
2022-08-05T00:00:48.343Z,86.70
2022-08-05T00:03:15.741Z,87.30
2022-08-05T00:06:04.579Z,88.30
2022-08-05T00:08:34.835Z,88.80
2022-08-05T00:11:00.582Z,87.90
2022-08-05T00:13:39.300Z,87.40
2022-08-05T00:16:06.260Z,87.40
2022-08-05T00:18:32.386Z,87.00
2022-08-05T00:20:56.919Z,87.50
2022-08-05T00:23:44.792Z,86.70
2022-08-05T00:26:04.915Z,87.30
2022-08-05T00:28:29.602Z,87.70
2022-08-05T00:30:53.709Z,88.20
2022-08-05T00:34:54.079Z,88.70
2022-08-05T00:36:16.637Z,88.40
2022-08-05T00:38:46.999Z,88.40
2022-08-05T00:41:11.564Z,89.10
2022-08-05T00:43:46.602Z,88.50
2022-08-05T00:46:11.465Z,88.20
2022-08-05T00:48:51.288Z,88.70
2022-08-05T00:51:51.067Z,88.90
2022-08-05T00:54:03.087Z,88.90
2022-08-05T00:56:27.416Z,89.70
2022-08-05T00:58:51.228Z,89.80
2022-08-05T01:01:42.904Z,91.10
2022-08-05T01:04:02.429Z,91.40
2022-08-05T01:06:35.453Z,90.20
2022-08-05T01:09:01.028Z,89.10
2022-08-05T01:11:37.176Z,90.50
2022-08-05T01:14:08.461Z,92.20
2022-08-05T01:16:40.220Z,91.20
2022-08-05T01:19:46.255Z,91.50
2022-08-05T01:22:24.139Z,91.90
2022-08-05T01:25:13.745Z,91.70
2022-08-05T01:28:18.337Z,92.40
2022-08-05T01:30:53.745Z,93.40
2022-08-05T01:33:25.167Z,92.80
2022-08-05T01:35:53.431Z,91.60
2022-08-05T01:38:27.119Z,93.80
2022-08-05T01:40:54.465Z,92.20
2022-08-05T01:43:22.444Z,92.10
2022-08-05T01:45:54.057Z,91.80
2022-08-05T01:48:21.319Z,92.00
2022-08-05T01:50:51.304Z,91.90
2022-08-05T01:53:37.399Z,91.60
2022-08-05T01:56:04.861Z,92.00
2022-08-05T01:58:40.887Z,92.00
2022-08-05T02:01:15.988Z,91.50
2022-08-05T02:03:50.749Z,90.90
2022-08-05T02:06:33.566Z,91.10
2022-08-05T02:08:59.504Z,90.80
2022-08-05T02:11:33.477Z,91.70
2022-08-05T02:14:06.845Z,91.60
2022-08-05T02:16:44.053Z,92.20
2022-08-05T02:19:14.233Z,92.60
2022-08-05T02:21:49.243Z,92.70
2022-08-05T02:24:23.053Z,93.40
2022-08-05T02:26:53.871Z,93.40
2022-08-05T02:29:26.078Z,93.80
2022-08-05T02:32:11.420Z,95.20
2022-08-05T02:34:37.550Z,94.40
2022-08-05T02:37:07.243Z,94.00
2022-08-05T02:39:36.639Z,94.50
2022-08-05T02:42:07.146Z,94.50
2022-08-05T02:44:37.489Z,94.50
2022-08-05T02:47:01.637Z,94.80
2022-08-05T02:49:27.489Z,94.80
2022-08-05T02:52:04.076Z,95.70
2022-08-05T02:54:36.091Z,96.20
2022-08-05T02:57:03.077Z,95.80
2022-08-05T02:59:30.994Z,96.20
2022-08-05T03:02:13.862Z,96.70
2022-08-05T03:04:39.087Z,99.90
2022-08-05T03:07:02.928Z,99.90
2022-08-05T03:09:37.570Z,99.90
2022-08-05T03:12:08.768Z,99.90
2022-08-05T03:14:32.448Z,99.90
2022-08-05T03:16:56.138Z,99.90
2022-08-05T03:19:34.637Z,99.40
2022-08-05T03:21:59.946Z,98.00
2022-08-05T03:24:30.289Z,98.30
2022-08-05T03:26:54.586Z,97.60
2022-08-05T03:29:18.792Z,99.30
2022-08-05T03:31:56.978Z,98.70
2022-08-05T03:34:25.460Z,98.20
2022-08-05T03:36:50.772Z,97.10
2022-08-05T03:39:20.024Z,97.00
2022-08-05T03:41:50.476Z,96.70
2022-08-05T03:44:19.790Z,97.10
2022-08-05T03:46:43.812Z,97.50
2022-08-05T03:49:09.974Z,96.60
2022-08-05T03:52:48.331Z,97.30
2022-08-05T03:55:53.047Z,97.10
2022-08-05T03:57:29.023Z,97.00
2022-08-05T04:00:10.056Z,96.90
2022-08-05T04:02:52.328Z,97.50
2022-08-05T04:05:23.550Z,97.60
2022-08-05T04:07:57.363Z,97.00
2022-08-05T04:10:22.780Z,97.00
2022-08-05T04:12:46.562Z,96.90
2022-08-05T04:15:15.667Z,97.80
2022-08-05T04:17:56.299Z,98.30
2022-08-05T04:20:23.396Z,98.70
2022-08-05T04:22:48.441Z,98.90
2022-08-05T04:25:12.588Z,98.30
2022-08-05T04:27:43.937Z,98.20
2022-08-05T04:30:21.266Z,98.90
2022-08-05T04:32:45.032Z,99.90
2022-08-05T04:35:17.578Z,99.90
2022-08-05T04:38:02.285Z,99.90
2022-08-05T04:40:28.916Z,99.90
2022-08-05T04:42:53.405Z,99.90
2022-08-05T04:45:31.383Z,99.90
2022-08-05T04:48:06.882Z,99.60
2022-08-05T04:51:02.925Z,99.90
2022-08-05T04:53:23.351Z,99.90
2022-08-05T04:56:14.682Z,99.90
2022-08-05T04:58:32.143Z,99.90
2022-08-05T05:00:56.424Z,99.90
2022-08-05T05:03:20.473Z,99.90
2022-08-05T05:06:36.516Z,99.20
2022-08-05T05:08:30.242Z,99.80
2022-08-05T05:10:56.674Z,99.80
2022-08-05T05:13:20.738Z,99.90
2022-08-05T05:15:57.220Z,99.90
2022-08-05T05:18:31.573Z,99.90
2022-08-05T05:20:57.270Z,99.90
2022-08-05T05:23:22.316Z,99.90
2022-08-05T05:25:46.630Z,99.60
2022-08-05T05:28:13.785Z,99.90
2022-08-05T05:30:37.657Z,99.70
2022-08-05T05:33:13.962Z,99.70
2022-08-05T05:35:42.610Z,99.90
2022-08-05T05:38:09.409Z,99.90
2022-08-05T05:40:37.790Z,99.90
2022-08-05T05:43:08.551Z,99.90
2022-08-05T05:45:34.291Z,99.90
2022-08-05T05:48:07.196Z,99.90
2022-08-05T05:50:32.959Z,99.90
2022-08-05T05:52:57.760Z,99.90
2022-08-05T05:55:23.220Z,99.90
2022-08-05T05:58:06.906Z,99.90
2022-08-05T06:00:34.448Z,99.60
2022-08-05T06:02:59.918Z,97.90
2022-08-05T06:05:24.954Z,99.90
2022-08-05T06:08:01.272Z,99.90
2022-08-05T06:10:29.392Z,99.90
2022-08-05T06:12:58.237Z,99.90
2022-08-05T06:15:23.665Z,98.80
2022-08-05T06:17:52.652Z,99.90
2022-08-05T06:20:21.406Z,99.90
2022-08-05T06:22:45.882Z,99.10
2022-08-05T06:25:24.305Z,99.90
2022-08-05T06:28:10.756Z,99.90
2022-08-05T06:30:33.130Z,99.20
2022-08-05T06:32:58.774Z,99.10
2022-08-05T06:36:03.380Z,99.10
2022-08-05T06:38:11.679Z,97.70
2022-08-05T06:40:35.637Z,98.90
2022-08-05T06:43:05.953Z,99.40
2022-08-05T06:46:06.528Z,99.70
2022-08-05T06:48:55.427Z,98.60
2022-08-05T06:51:23.779Z,98.00
2022-08-05T06:53:53.861Z,98.10
2022-08-05T06:56:26.377Z,97.90
2022-08-05T06:58:51.113Z,96.50
2022-08-05T07:01:14.699Z,97.40
2022-08-05T07:03:45.865Z,98.10
2022-08-05T07:06:14.302Z,97.90
2022-08-05T07:08:39.022Z,97.00
2022-08-05T07:11:06.232Z,99.30
2022-08-05T07:13:59.888Z,97.80
2022-08-05T07:18:00.691Z,99.10
2022-08-05T07:20:05.017Z,97.40
2022-08-05T07:22:09.639Z,98.50
2022-08-05T07:24:35.094Z,98.80
2022-08-05T07:27:08.808Z,97.40
2022-08-05T07:30:27.529Z,97.00
2022-08-05T07:32:16.233Z,96.90
2022-08-05T07:34:42.413Z,96.90
2022-08-05T07:37:06.270Z,96.10
2022-08-05T07:40:04.696Z,96.40
2022-08-05T07:42:19.438Z,96.50
2022-08-05T07:44:57.596Z,96.60
2022-08-05T07:47:25.795Z,95.20
2022-08-05T07:49:54.278Z,95.20
2022-08-05T07:52:18.412Z,96.60
2022-08-05T07:54:49.142Z,97.40
2022-08-05T07:57:41.545Z,97.00
2022-08-05T07:59:56.763Z,96.20
2022-08-05T08:05:03.605Z,94.90
2022-08-05T08:07:28.388Z,95.90
2022-08-05T08:09:55.119Z,95.80
2022-08-05T08:12:37.318Z,94.60
2022-08-05T08:15:03.586Z,93.70
2022-08-05T08:17:28.091Z,96.40
2022-08-05T08:20:43.361Z,96.60
2022-08-05T08:22:39.149Z,96.40
2022-08-05T08:25:16.463Z,94.90
2022-08-05T08:27:47.641Z,93.80
2022-08-05T08:30:29.976Z,94.60
2022-08-05T08:32:57.737Z,94.10
2022-08-05T08:35:21.779Z,95.10
2022-08-05T08:37:53.601Z,94.50
2022-08-05T08:40:22.324Z,95.80
2022-08-05T08:42:52.984Z,93.70
2022-08-05T08:45:26.057Z,93.60
2022-08-05T08:48:10.423Z,94.10
2022-08-05T08:51:22.613Z,94.10
2022-08-05T08:53:28.956Z,94.70
2022-08-05T08:56:03.203Z,96.40
2022-08-05T08:58:43.081Z,95.00
2022-08-05T09:01:11.020Z,94.70
2022-08-05T09:03:44.982Z,94.10
2022-08-05T09:06:12.124Z,93.80
2022-08-05T09:08:42.070Z,93.80
2022-08-05T09:11:12.122Z,93.30
2022-08-05T09:14:09.885Z,95.10
2022-08-05T09:16:22.242Z,94.30
2022-08-05T09:18:50.594Z,94.10
2022-08-05T09:21:20.919Z,93.40
2022-08-05T09:24:10.275Z,94.50
2022-08-05T09:26:34.012Z,93.10
2022-08-05T09:29:05.822Z,93.40
2022-08-05T09:32:51.325Z,93.50
2022-08-05T09:34:17.114Z,93.00
2022-08-05T09:36:45.655Z,92.60
2022-08-05T09:39:22.214Z,91.30
2022-08-05T09:42:01.495Z,90.60
2022-08-05T09:44:40.933Z,92.10
2022-08-05T09:47:15.653Z,89.60
2022-08-05T09:50:01.375Z,88.40
2022-08-05T09:52:29.247Z,90.60
2022-08-05T09:55:55.167Z,90.10
2022-08-05T09:57:47.690Z,87.90
2022-08-05T10:00:14.716Z,87.20
2022-08-05T10:02:40.936Z,88.90
2022-08-05T10:05:15.805Z,86.70
2022-08-05T10:08:10.831Z,86.00
2022-08-05T10:10:53.909Z,85.90
2022-08-05T10:13:44.109Z,84.60
2022-08-05T10:16:32.124Z,86.70
2022-08-05T10:18:58.172Z,87.10
2022-08-05T10:21:22.950Z,85.50
2022-08-05T10:23:55.430Z,86.20
2022-08-05T10:26:31.753Z,86.10
2022-08-05T10:28:56.671Z,84.90
2022-08-05T10:33:01.150Z,85.10
2022-08-05T10:34:07.177Z,84.80
2022-08-05T10:36:32.159Z,84.30
2022-08-05T10:39:10.330Z,85.10
2022-08-05T10:41:47.721Z,82.80
2022-08-05T10:44:14.830Z,81.40
2022-08-05T10:46:50.655Z,82.20
2022-08-05T10:49:18.481Z,84.30
2022-08-05T10:52:00.362Z,84.10
2022-08-05T10:54:29.884Z,81.00
2022-08-05T10:56:58.533Z,81.30
2022-08-05T11:00:03.390Z,80.80
2022-08-05T11:02:38.247Z,82.30
2022-08-05T11:04:59.143Z,83.60
2022-08-05T11:07:32.742Z,81.50
2022-08-05T11:10:27.219Z,80.90
2022-08-05T11:12:54.974Z,80.60
2022-08-05T11:15:22.573Z,81.80
2022-08-05T11:17:59.384Z,84.30
2022-08-05T11:20:39.160Z,81.30
2022-08-05T11:24:05.193Z,79.60
2022-08-05T11:26:28.545Z,80.60
2022-08-05T11:28:58.735Z,80.90
2022-08-05T11:31:56.714Z,81.00
2022-08-05T11:34:21.174Z,80.40
2022-08-05T11:36:52.998Z,80.50
2022-08-05T11:39:19.441Z,79.90
2022-08-05T11:41:57.888Z,80.10
2022-08-05T11:44:52.819Z,79.90
2022-08-05T11:47:21.996Z,78.70
2022-08-05T11:49:49.738Z,79.60
2022-08-05T11:52:16.160Z,78.90
2022-08-05T11:54:55.058Z,77.00
2022-08-05T11:57:25.546Z,76.60
2022-08-05T11:59:52.149Z,79.20
2022-08-05T12:02:30.637Z,77.10
2022-08-05T12:04:59.511Z,74.60
2022-08-05T12:08:09.186Z,76.90
2022-08-05T12:10:11.613Z,76.50
2022-08-05T12:12:35.999Z,75.70
2022-08-05T12:15:01.110Z,74.80
2022-08-05T12:18:02.560Z,73.60
2022-08-05T12:20:25.469Z,74.70
2022-08-05T12:22:51.795Z,72.80
2022-08-05T12:25:16.530Z,75.80
2022-08-05T12:27:53.221Z,74.30
2022-08-05T12:30:19.092Z,75.60
2022-08-05T12:32:50.396Z,76.00
2022-08-05T12:35:16.901Z,72.90
2022-08-05T12:37:48.006Z,74.10
2022-08-05T12:40:26.554Z,71.60
2022-08-05T12:42:52.495Z,74.50
2022-08-05T12:45:18.637Z,74.00
2022-08-05T12:48:01.484Z,74.80
2022-08-05T12:50:31.007Z,75.30
2022-08-05T12:52:59.646Z,77.60
2022-08-05T12:55:26.467Z,76.30
2022-08-05T12:58:39.087Z,72.40
2022-08-05T13:02:01.960Z,73.90
2022-08-05T13:03:27.052Z,72.00
2022-08-05T13:05:56.510Z,72.00
2022-08-05T13:08:20.150Z,70.20
2022-08-05T13:10:50.235Z,68.90
2022-08-05T13:14:05.202Z,70.50
2022-08-05T13:16:00.108Z,72.90
2022-08-05T13:18:24.101Z,74.50
2022-08-05T13:20:49.218Z,74.90
2022-08-05T13:23:13.590Z,74.60
2022-08-05T13:25:52.486Z,73.00
2022-08-05T13:28:22.776Z,74.70
2022-08-05T13:30:46.347Z,75.40
2022-08-05T13:33:14.317Z,74.00
2022-08-05T13:35:57.383Z,72.50
2022-08-05T13:38:30.330Z,72.30
2022-08-05T13:40:55.041Z,70.90
2022-08-05T13:43:21.857Z,72.50
2022-08-05T13:45:45.992Z,73.40
2022-08-05T13:48:58.457Z,72.40
2022-08-05T13:50:56.358Z,69.20
2022-08-05T13:53:20.350Z,69.00
2022-08-05T13:55:49.237Z,69.40
2022-08-05T13:58:30.306Z,68.70
2022-08-05T14:00:54.712Z,68.70
2022-08-05T14:03:19.712Z,70.60
2022-08-05T14:06:04.787Z,67.00
2022-08-05T14:08:27.659Z,66.50
2022-08-05T14:11:03.277Z,65.50
2022-08-05T14:13:39.963Z,69.70
2022-08-05T14:16:07.848Z,62.50
2022-08-05T14:18:35.944Z,63.50
2022-08-05T14:22:06.984Z,60.30
2022-08-05T14:23:45.265Z,60.40
2022-08-05T14:26:08.897Z,58.70
2022-08-05T14:28:52.586Z,62.60
2022-08-05T14:31:17.182Z,61.90
2022-08-05T14:34:01.122Z,59.90
2022-08-05T14:36:25.030Z,59.90
2022-08-05T14:38:50.449Z,61.10
2022-08-05T14:41:14.881Z,60.50
2022-08-05T14:43:58.863Z,60.10
2022-08-05T14:46:27.225Z,59.70
2022-08-05T14:48:52.238Z,58.40
2022-08-05T14:51:17.962Z,58.60
2022-08-05T14:53:44.316Z,57.50
2022-08-05T14:56:09.126Z,56.40
2022-08-05T14:58:35.384Z,54.90
2022-08-05T15:01:00.432Z,56.30
2022-08-05T15:03:25.167Z,56.50
2022-08-05T15:06:07.858Z,56.40
2022-08-05T15:08:58.525Z,52.90
2022-08-05T15:11:17.705Z,54.60
2022-08-05T15:13:45.781Z,54.10
2022-08-05T15:16:10.995Z,55.80
2022-08-05T15:18:36.877Z,52.80
2022-08-05T15:21:07.154Z,55.70
2022-08-05T15:23:31.530Z,54.60
2022-08-05T15:26:02.724Z,55.20
2022-08-05T15:28:29.967Z,54.70
2022-08-05T15:30:53.573Z,53.30
2022-08-05T15:33:56.678Z,54.70
2022-08-05T15:36:03.404Z,54.40
2022-08-05T15:38:35.497Z,54.00
2022-08-05T15:41:23.005Z,52.10
2022-08-05T15:43:47.144Z,51.90
2022-08-05T15:46:11.026Z,52.30
2022-08-05T15:48:34.802Z,54.60
2022-08-05T15:51:03.496Z,53.50
2022-08-05T15:53:38.105Z,52.60
2022-08-05T15:56:05.706Z,50.10
2022-08-05T15:58:36.854Z,51.10
2022-08-05T16:01:18.365Z,51.00
2022-08-05T16:03:42.771Z,48.70
2022-08-05T16:15:09.471Z,56.90
2022-08-05T16:17:33.170Z,49.20
2022-08-05T16:20:04.758Z,49.70
2022-08-05T16:22:33.959Z,50.10
2022-08-05T16:24:57.897Z,49.40
2022-08-05T16:27:32.027Z,48.70
2022-08-05T16:30:23.172Z,48.90
2022-08-05T16:32:47.345Z,47.50
2022-08-05T16:35:11.196Z,49.30
2022-08-05T16:38:02.423Z,49.70
2022-08-05T16:40:28.549Z,48.40
2022-08-05T16:42:52.936Z,47.00
2022-08-05T16:46:03.478Z,46.20
2022-08-05T16:48:02.939Z,47.70
2022-08-05T16:50:26.919Z,48.00
2022-08-05T16:52:50.544Z,49.30
2022-08-05T16:55:14.468Z,49.80
2022-08-05T16:57:53.077Z,48.90
2022-08-05T17:00:25.953Z,48.70
2022-08-05T17:02:58.174Z,48.60
2022-08-05T17:05:22.039Z,48.70
2022-08-05T17:07:54.704Z,48.40
2022-08-05T17:10:18.749Z,48.70
2022-08-05T17:12:51.781Z,49.90
2022-08-05T17:15:19.598Z,49.90
2022-08-05T17:17:45.738Z,50.30
2022-08-05T17:20:18.528Z,50.30
2022-08-05T17:22:42.152Z,49.50
2022-08-05T17:25:22.171Z,49.20
2022-08-05T17:27:51.758Z,50.30
2022-08-05T17:30:19.154Z,49.40
2022-08-05T17:32:53.565Z,49.80
2022-08-05T17:35:20.638Z,51.60
2022-08-05T17:37:48.273Z,50.60
2022-08-05T17:40:15.438Z,50.20
2022-08-05T17:42:43.006Z,50.30
2022-08-05T17:45:20.409Z,50.40
2022-08-05T17:47:48.870Z,51.30
2022-08-05T17:50:22.756Z,52.00
2022-08-05T17:52:54.866Z,52.10
2022-08-05T17:55:18.914Z,52.70
2022-08-05T17:57:50.030Z,52.10
2022-08-05T18:00:15.380Z,53.10
2022-08-05T18:02:38.965Z,52.70
2022-08-05T18:05:07.777Z,54.20
2022-08-05T18:07:41.562Z,55.40
2022-08-05T18:10:09.897Z,54.50
2022-08-05T18:12:34.340Z,54.80
2022-08-05T18:14:58.031Z,54.90
2022-08-05T18:17:58.890Z,55.40
2022-08-05T18:20:14.139Z,56.60
2022-08-05T18:22:53.892Z,56.10
2022-08-05T18:25:22.123Z,56.40
2022-08-05T18:27:51.951Z,55.30
2022-08-05T18:30:16.637Z,56.80
2022-08-05T18:32:40.286Z,54.00
2022-08-05T18:35:17.232Z,55.00
2022-08-05T18:37:42.974Z,56.90
2022-08-05T18:41:49.925Z,55.70
2022-08-05T18:42:52.022Z,56.70
2022-08-05T18:45:15.932Z,56.40
2022-08-05T18:47:39.833Z,55.40
2022-08-05T18:50:22.425Z,57.70
2022-08-05T18:53:15.617Z,55.70
2022-08-05T18:55:43.098Z,57.40
2022-08-05T18:58:07.822Z,57.30
2022-08-05T19:00:40.247Z,56.50
2022-08-05T19:03:05.821Z,57.00
2022-08-05T19:06:11.040Z,58.10
2022-08-05T19:08:15.756Z,57.10
2022-08-05T19:10:43.099Z,58.40
2022-08-05T19:13:06.914Z,58.60
2022-08-05T19:15:58.740Z,60.10
2022-08-05T19:18:22.064Z,59.60
2022-08-05T19:20:48.325Z,57.30
2022-08-05T19:24:04.543Z,58.70
2022-08-05T19:26:02.215Z,58.40
2022-08-05T19:28:26.645Z,58.80
2022-08-05T19:30:51.482Z,59.00
2022-08-05T19:33:16.954Z,60.10
2022-08-05T19:35:56.396Z,59.60
2022-08-05T19:38:26.360Z,60.00
2022-08-05T19:40:50.370Z,61.50
2022-08-05T19:44:04.228Z,61.70
2022-08-05T19:46:01.844Z,60.60
2022-08-05T19:48:25.343Z,62.90
2022-08-05T19:50:49.338Z,61.30
2022-08-05T19:53:15.074Z,62.20
2022-08-05T19:56:15.202Z,61.30
2022-08-05T19:58:29.530Z,62.60
2022-08-05T20:00:53.779Z,62.30
2022-08-05T20:03:17.646Z,63.40
2022-08-05T20:05:50.343Z,62.50
2022-08-05T20:08:15.558Z,63.00
2022-08-05T20:10:39.168Z,63.10
2022-08-05T20:13:06.968Z,62.50
2022-08-05T20:15:51.569Z,63.10
2022-08-05T20:18:33.552Z,63.30
2022-08-05T20:21:00.037Z,65.10
2022-08-05T20:23:40.526Z,64.60
2022-08-05T20:26:08.152Z,65.60
2022-08-05T20:28:39.141Z,65.50
2022-08-05T20:31:05.481Z,66.40
2022-08-05T20:33:29.514Z,66.40
2022-08-05T20:35:57.165Z,65.80
2022-08-05T20:38:27.126Z,66.00
2022-08-05T20:40:52.562Z,66.50
2022-08-05T20:43:57.447Z,66.30
2022-08-05T20:46:06.790Z,66.30
2022-08-05T20:48:30.436Z,67.00
2022-08-05T20:50:54.384Z,67.40
2022-08-05T20:53:36.590Z,66.40
2022-08-05T20:56:08.230Z,66.30
2022-08-05T20:58:32.666Z,67.60
2022-08-05T21:00:56.834Z,67.60
2022-08-05T21:03:22.099Z,67.20
2022-08-05T21:05:53.810Z,68.00
2022-08-05T21:08:18.855Z,67.40
2022-08-05T21:10:48.674Z,68.60
2022-08-05T21:13:14.836Z,66.80
2022-08-05T21:15:44.539Z,67.20
2022-08-05T21:18:14.805Z,68.70
2022-08-05T21:20:40.277Z,68.60
2022-08-05T21:23:07.440Z,69.70
2022-08-05T21:25:34.048Z,70.00
2022-08-05T21:27:57.916Z,69.20
2022-08-05T21:30:21.959Z,71.00
2022-08-05T21:32:47.610Z,71.50
2022-08-05T21:35:18.330Z,71.50
2022-08-05T21:37:55.231Z,71.60
2022-08-05T21:40:18.910Z,71.50
2022-08-05T21:42:44.523Z,71.50
2022-08-05T21:45:10.701Z,71.80
2022-08-05T21:47:56.526Z,72.40
2022-08-05T21:50:19.846Z,72.70
2022-08-05T21:52:47.385Z,72.20
2022-08-05T21:55:12.973Z,72.70
2022-08-05T21:57:42.689Z,72.00
2022-08-05T22:00:11.158Z,71.80
2022-08-05T22:02:38.217Z,71.10
2022-08-05T22:05:01.798Z,72.60
2022-08-05T22:07:54.234Z,72.30
2022-08-05T22:10:13.158Z,71.20
2022-08-05T22:12:40.235Z,70.70
2022-08-05T22:15:16.344Z,71.70
2022-08-05T22:17:56.307Z,70.70
2022-08-05T22:20:23.684Z,70.30
2022-08-05T22:23:16.676Z,70.60
2022-08-05T22:26:09.648Z,71.20
2022-08-05T22:28:35.292Z,72.30
2022-08-05T22:31:05.253Z,73.30
2022-08-05T22:33:57.662Z,72.60
2022-08-05T22:36:15.218Z,73.30
2022-08-05T22:38:39.079Z,73.70
2022-08-05T22:41:09.513Z,73.80
2022-08-05T22:43:36.270Z,72.60
2022-08-05T22:46:03.506Z,73.80
2022-08-05T22:48:32.751Z,74.60
2022-08-05T22:50:56.430Z,74.30
2022-08-05T22:53:20.420Z,75.00
2022-08-05T22:55:56.964Z,75.20
2022-08-05T22:58:28.325Z,75.50
2022-08-05T23:00:52.337Z,75.50
2022-08-05T23:03:20.792Z,75.70
2022-08-05T23:06:04.507Z,75.90
2022-08-05T23:08:30.395Z,75.60
2022-08-05T23:10:55.005Z,76.80
2022-08-05T23:13:21.210Z,77.00
2022-08-05T23:15:44.918Z,77.10
2022-08-05T23:18:15.917Z,77.00
2022-08-05T23:20:40.052Z,76.70
2022-08-05T23:23:08.623Z,76.70
2022-08-05T23:25:51.778Z,76.90
2022-08-05T23:28:17.382Z,77.30
2022-08-05T23:30:43.782Z,77.30
2022-08-05T23:33:16.172Z,77.20
2022-08-05T23:35:49.332Z,77.40
2022-08-05T23:38:13.209Z,77.70
2022-08-05T23:40:37.934Z,77.60
2022-08-05T23:43:02.086Z,77.70
2022-08-05T23:45:47.026Z,77.70
2022-08-05T23:48:12.111Z,77.90
2022-08-05T23:50:35.789Z,77.80
2022-08-05T23:52:58.346Z,77.80
2022-08-05T23:55:22.431Z,78.10
2022-08-05T23:57:48.832Z,78.20
